PENO2: Grand Lake O' The Cherokees, Pensacola Dm

Data processed at Fri Aug 18 2017 20:38


All information presented herein is the property of the government of the United States of America and may be revised or deleted at any time without prior notice.
Dissemination of this information without the expressed written consent of the Public Affairs Office, Tulsa District U.S. Army Corps of Engineers is strictly prohibited.
These data are gathered electronically and, as presented, have not undergone any form of quality control. These data are not guaranteed to be valid or correct.
Go to home page.
Go to station list.

Upstream stations:

Downstream station:
Previous Day
Next Day
Current Day
    
SHEF ID:       PENO2     Lake O' the Cherokees at Langley
STATION TYPE:  RESERVOIR

               PRECIP ELEVATION   STORAGE    INFLOW   RELEASE  AIR-TEMP  WIND-DIRWIND-SPEED REL-HUMID SOLAR-RAD   VOLTAGE  BAT-LOAD
                   in        ft     ac-ft       cfs       cfs         F       deg       mph         %      W/m2      volt      volt
              Ccp-Rev   Ccp-Rev   Ccp-Rev  Regi-Rev  Regi-Rev   Ccp-Rev   Ccp-Rev   Ccp-Rev   Ccp-Rev   Ccp-Rev   Ccp-Rev   Ccp-Rev
(US/Central)
08/18 00:00      0.00    743.74   1463266     37681     11306     73.89    165.69      0.10     92.27      0.00     12.89     12.65
08/18 01:00      0.00    743.80   1465720     37859     12100     73.20    178.41      0.07     93.66      0.00     12.86     12.65
08/18 02:00      0.00    743.87   1468583     36686     12100     72.84    146.63      0.06     93.27      0.00     12.84     12.57
08/18 03:00      0.00    743.90   1469810     38839     12100     72.43    148.92      0.18     93.77      0.00     12.82     12.57
08/18 04:00      0.00    743.95   1471855     36917     12100     72.91    123.40      1.08     93.40      0.00     12.81     12.57
08/18 05:00      0.00    744.01   1474315     36014     12100     72.63    153.09      0.50     94.28      0.00     12.80     12.57
08/18 06:00      0.00    744.05   1475975     36058     12100     72.90    136.66      1.61     95.78      0.00     12.79     12.57
08/18 07:00      0.00    744.11   1478465     36131     12100     73.44    134.47      1.31     96.35      2.44     12.78     12.49
08/18 08:00      0.00    744.14   1479710     33190     12100     74.66    134.47      1.78     95.92     31.58     12.77     12.49
08/18 09:00      0.00    744.19   1481785     36203     12100     76.41    155.60      3.00     95.90     44.33     12.76     12.49
08/18 10:00      0.00    744.25   1484275      -901     12100     77.99    164.80      2.44     92.58    128.73     12.75     12.49
08/18 11:00      0.00    744.29   1485935      -901     12100     80.71    169.18      3.51     86.37    330.95     12.74     12.49
08/18 12:00      0.00    744.35   1488425      -901     14300     82.56    177.35      3.01     81.24    250.44     12.74     12.49
08/18 13:00      0.00    744.37   1489255      -901     14300     84.99    192.94      3.82     73.63    391.00     12.73     12.41
08/18 14:00      0.00    744.42   1491330      -901     14300     85.37    232.52      3.31     71.96    655.70     12.73     12.41
08/18 15:00      0.00    744.45   1492575      -901     14300     86.94    172.73      4.18     67.22    587.82     12.71     12.41
08/18 16:00      0.00    744.50   1494650      -901     14300     87.75    195.87      3.85     65.80    445.85     12.72     12.41
08/18 17:00      0.00    744.50   1494650      -901     14300     88.52    183.58      4.51     65.18    378.98     12.71     12.41
08/18 18:00      0.00    744.56   1497140      -901     14300     89.31    175.73      6.02     61.42    369.61     12.71     12.41
08/18 19:00      0.00    744.60   1498800      -901     14300     88.97    150.91      2.98     60.77    190.21     12.71     12.41
08/18 20:00      0.00    744.65   1500875      ----      ----     86.56    106.39      0.72     70.25     27.53     12.71     12.41
08/18 21:00      ----      ----      ----      ----      ----      ----      ----      ----      ----      ----      ----      ----
08/18 22:00      ----      ----      ----      ----      ----      ----      ----      ----      ----      ----      ----      ----
08/18 23:00      ----      ----      ----      ----      ----      ----      ----      ----      ----      ----      ----      ----